Time;durP1;ratioP1;P1;durP2;ratioP2;P2;SDS_P1;SDS_P2;PMS_P1;PMS_P2;Temp;Humidity;BMP_temperature;BMP_pressure;BME280_temperature;BME280_humidity;BME280_pressure;Samples;Min_cycle;Max_cycle;Signal;HPM_P1;HPM_P2
2021/08/14 00:01:08;;;;;;;8.30;7.30;;;;;;;17.17;69.10;100500.56;154552;1093;103100;-78
2021/08/14 00:04:11;;;;;;;10.23;8.43;;;;;;;17.19;68.96;100503.91;154577;1098;103209;-79
2021/08/14 00:07:13;;;;;;;8.97;7.93;;;;;;;17.19;69.50;100491.25;154599;1098;103237;-79
2021/08/14 00:10:16;;;;;;;10.33;7.60;;;;;;;17.19;69.29;100493.12;154617;1093;103189;-79
2021/08/14 00:13:19;;;;;;;10.83;7.50;;;;;;;17.21;69.13;100491.89;154604;1098;103192;-78
2021/08/14 00:16:22;;;;;;;12.20;7.85;;;;;;;17.23;69.40;100487.14;154598;1098;103188;-78
2021/08/14 00:19:25;;;;;;;8.97;7.73;;;;;;;17.26;69.57;100500.25;154692;1098;103188;-77
2021/08/14 00:22:27;;;;;;;10.23;8.27;;;;;;;17.27;69.51;100480.33;154584;1093;103202;-78
2021/08/14 00:25:30;;;;;;;9.60;8.57;;;;;;;17.26;69.74;100484.07;154576;1093;103189;-79
2021/08/14 00:28:33;;;;;;;9.83;7.20;;;;;;;17.25;69.64;100471.60;154557;1093;103586;-78
2021/08/14 00:31:36;;;;;;;9.93;7.30;;;;;;;17.31;69.77;100474.57;154559;1093;103109;-77
2021/08/14 00:34:39;;;;;;;9.90;8.03;;;;;;;17.33;69.46;100475.21;154568;1098;103131;-78
2021/08/14 00:37:42;;;;;;;9.60;7.90;;;;;;;17.32;69.76;100477.08;154608;1098;103199;-78
2021/08/14 00:40:44;;;;;;;9.20;8.20;;;;;;;17.31;69.90;100475.39;154572;1098;103713;-77
2021/08/14 00:43:48;;;;;;;9.93;8.30;;;;;;;17.31;69.98;100474.57;154586;1098;103121;-78
2021/08/14 00:46:51;;;;;;;9.90;7.70;;;;;;;17.32;70.00;100478.92;154553;1098;104615;-79
2021/08/14 00:49:54;;;;;;;8.07;6.90;;;;;;;17.33;70.11;100473.34;154529;1093;103183;-78
2021/08/14 00:52:57;;;;;;;9.60;8.00;;;;;;;17.39;70.34;100466.34;154564;1093;103193;-78
2021/08/14 00:56:00;;;;;;;10.80;8.43;;;;;;;17.44;70.00;100459.34;154529;1098;103119;-78
2021/08/14 00:59:05;;;;;;;10.43;8.70;;;;;;;17.48;70.13;100456.27;154616;1093;103197;-78
2021/08/14 01:02:09;;;;;;;10.93;9.40;;;;;;;17.49;70.29;100450.66;154576;1098;103129;-78
2021/08/14 01:05:12;;;;;;;9.27;7.90;;;;;;;17.50;70.37;100446.95;154552;1098;103122;-79
2021/08/14 01:08:16;;;;;;;8.60;7.70;;;;;;;17.56;70.55;100446.16;154535;1093;103307;-78
2021/08/14 01:11:18;;;;;;;10.00;8.15;;;;;;;17.63;70.36;100448.94;154591;1093;103294;-78
2021/08/14 01:14:21;;;;;;;10.03;8.97;;;;;;;17.70;70.38;100448.98;154614;1093;103128;-78
2021/08/14 01:17:24;;;;;;;12.37;9.27;;;;;;;17.71;70.31;100445.27;154590;1093;103110;-78
2021/08/14 01:20:27;;;;;;;10.17;8.93;;;;;;;17.73;70.58;100445.90;154609;1093;103151;-79
2021/08/14 01:23:30;;;;;;;9.83;8.40;;;;;;;17.72;70.62;100441.52;154642;1098;103180;-78
2021/08/14 01:26:33;;;;;;;8.53;7.43;;;;;;;17.78;70.53;100433.49;154542;1093;103278;-79
2021/08/14 01:29:36;;;;;;;10.23;8.27;;;;;;;17.83;70.30;100430.19;154593;1098;103188;-78
2021/08/14 01:32:39;;;;;;;12.23;9.33;;;;;;;17.89;70.47;100429.42;154562;1094;103138;-78
2021/08/14 01:35:44;;;;;;;11.10;8.67;;;;;;;17.90;70.51;100420.31;154582;1093;103128;-79
2021/08/14 01:38:49;;;;;;;13.80;9.60;;;;;;;17.93;70.51;100425.30;154537;1098;103557;-77
2021/08/14 01:41:59;;;;;;;10.90;8.27;;;;;;;17.97;70.58;100425.74;154592;1093;103291;-77
2021/08/14 01:45:03;;;;;;;10.67;8.33;;;;;;;17.98;70.47;100424.73;154620;1093;103188;-78
2021/08/14 01:48:06;;;;;;;9.60;8.25;;;;;;;18.03;70.43;100415.00;154484;1098;103554;-78
2021/08/14 01:51:09;;;;;;;10.63;9.47;;;;;;;18.03;70.52;100415.00;154559;1093;103188;-78
2021/08/14 01:54:13;;;;;;;12.50;9.27;;;;;;;18.05;70.48;100412.94;154585;1094;103608;-78
2021/08/14 01:57:16;;;;;;;10.93;9.00;;;;;;;18.03;70.51;100411.45;154599;1098;103272;-79
2021/08/14 02:00:19;;;;;;;11.20;9.67;;;;;;;18.00;70.48;100415.39;154573;1098;103554;-77
2021/08/14 02:03:22;;;;;;;12.67;8.23;;;;;;;17.99;70.64;100408.30;154548;1098;103040;-78
2021/08/14 02:06:26;;;;;;;10.27;7.97;;;;;;;18.01;70.78;100413.52;154567;1098;103189;-77
2021/08/14 02:09:29;;;;;;;12.03;8.33;;;;;;;18.02;70.57;100413.32;154629;1098;103189;-78
2021/08/14 02:12:32;;;;;;;10.40;8.93;;;;;;;18.04;70.56;100399.63;154566;1093;103293;-78
2021/08/14 02:15:34;;;;;;;10.33;9.23;;;;;;;18.05;70.74;100407.53;154561;1093;103123;-78
2021/08/14 02:18:37;;;;;;;11.20;8.97;;;;;;;18.03;70.93;100403.34;154606;1093;103554;-78
2021/08/14 02:21:40;;;;;;;10.20;8.80;;;;;;;17.97;70.68;100404.97;154567;1098;103206;-78
2021/08/14 02:24:43;;;;;;;9.80;8.53;;;;;;;17.94;70.51;100396.46;154618;1093;103131;-78
2021/08/14 02:27:45;;;;;;;9.83;8.70;;;;;;;17.94;70.80;100385.66;154586;1098;103267;-79
2021/08/14 02:30:48;;;;;;;10.43;9.33;;;;;;;17.95;71.04;100384.61;154660;1098;103211;-78
2021/08/14 02:33:53;;;;;;;10.80;9.70;;;;;;;17.92;70.89;100393.95;154665;1093;103189;-78
2021/08/14 02:36:56;;;;;;;10.63;9.27;;;;;;;17.88;71.01;100395.39;154556;1098;103135;-79
2021/08/14 02:39:59;;;;;;;11.77;9.10;;;;;;;17.84;70.95;100385.98;154555;1098;103190;-78
2021/08/14 02:43:02;;;;;;;10.67;8.47;;;;;;;17.81;71.32;100383.67;154655;1098;103187;-79
2021/08/14 02:46:05;;;;;;;8.83;7.93;;;;;;;17.80;71.09;100381.98;154609;1098;103131;-77
2021/08/14 02:49:08;;;;;;;10.20;9.10;;;;;;;17.79;71.29;100381.16;154591;1098;103210;-78
2021/08/14 02:52:11;;;;;;;12.37;9.70;;;;;;;17.76;71.22;100378.84;154549;1093;103189;-79
2021/08/14 02:55:13;;;;;;;12.23;9.90;;;;;;;17.73;71.44;100379.25;154617;1098;103134;-79
2021/08/14 02:58:16;;;;;;;11.80;9.27;;;;;;;17.73;71.52;100379.25;154599;1098;103254;-78
2021/08/14 03:01:19;;;;;;;10.83;8.97;;;;;;;17.71;71.47;100367.83;154573;1098;103240;-78
2021/08/14 03:04:22;;;;;;;13.70;9.40;;;;;;;17.73;71.77;100376.56;154611;1098;103419;-78
2021/08/14 03:07:24;;;;;;;11.53;9.90;;;;;;;17.80;71.79;100377.45;154648;1098;103240;-79
2021/08/14 03:10:27;;;;;;;12.07;9.97;;;;;;;17.83;71.52;100366.23;154546;1093;103062;-79
2021/08/14 03:13:30;;;;;;;14.75;10.55;;;;;;;17.85;71.51;100366.08;154539;1098;103113;-78
2021/08/14 03:16:33;;;;;;;13.60;9.87;;;;;;;17.86;71.69;100375.85;154631;1093;103583;-78
2021/08/14 03:19:35;;;;;;;10.73;9.13;;;;;;;17.86;71.91;100370.45;154623;1098;103201;-77
2021/08/14 03:22:38;;;;;;;10.70;9.40;;;;;;;17.86;71.97;100370.45;154586;1098;103203;-79
2021/08/14 03:25:41;;;;;;;12.37;10.07;;;;;;;17.85;71.86;100379.57;154534;1098;103190;-79
2021/08/14 03:28:43;;;;;;;12.77;10.60;;;;;;;17.87;72.01;100380.20;154624;1093;103192;-77
2021/08/14 03:31:46;;;;;;;13.50;11.07;;;;;;;17.82;72.12;100379.92;154562;1093;103114;-78
2021/08/14 03:34:49;;;;;;;12.00;10.05;;;;;;;17.82;72.08;100385.31;154593;1093;103110;-78
2021/08/14 03:37:52;;;;;;;12.07;9.57;;;;;;;17.85;72.18;100376.88;154575;1093;103270;-79
2021/08/14 03:40:54;;;;;;;11.13;9.77;;;;;;;17.89;72.13;100383.53;154575;1093;103152;-78
2021/08/14 03:43:57;;;;;;;13.60;10.43;;;;;;;17.95;72.28;100379.22;154566;1093;103116;-78
2021/08/14 03:47:00;;;;;;;11.77;9.90;;;;;;;17.98;72.34;100371.55;154543;1094;103183;-79
2021/08/14 03:50:06;;;;;;;13.70;10.60;;;;;;;18.00;72.18;100371.36;154661;1093;103123;-78
2021/08/14 03:53:08;;;;;;;12.50;9.53;;;;;;;18.03;72.34;100371.80;154682;1093;103191;-79
2021/08/14 03:56:11;;;;;;;10.27;9.20;;;;;;;18.07;72.38;100374.09;154607;1093;103262;-77
2021/08/14 03:59:14;;;;;;;13.50;10.03;;;;;;;18.14;72.38;100383.06;154539;1098;103059;-79
2021/08/14 04:02:17;;;;;;;12.97;10.10;;;;;;;18.19;72.14;100386.84;154548;1093;103125;-79
2021/08/14 04:05:19;;;;;;;12.80;11.03;;;;;;;18.22;72.31;100389.12;154601;1098;103122;-78
2021/08/14 04:08:23;;;;;;;14.85;11.40;;;;;;;18.27;72.42;100387.72;154575;1098;103206;-77
2021/08/14 04:11:26;;;;;;;12.50;10.13;;;;;;;18.26;72.27;100392.26;154595;1093;103180;-78
2021/08/14 04:14:28;;;;;;;11.50;9.53;;;;;;;18.29;72.43;100391.88;154598;1098;103123;-78
2021/08/14 04:17:31;;;;;;;12.20;9.77;;;;;;;18.36;72.57;100387.34;154561;1098;103668;-79
2021/08/14 04:20:34;;;;;;;12.63;10.07;;;;;;;18.42;72.65;100397.34;154674;1093;103120;-78
2021/08/14 04:23:37;;;;;;;14.10;10.45;;;;;;;18.48;72.59;100392.17;154634;1093;103270;-78
2021/08/14 04:26:40;;;;;;;12.27;10.97;;;;;;;18.54;72.47;100388.66;154612;1093;103263;-78
2021/08/14 04:29:42;;;;;;;11.05;9.80;;;;;;;18.62;72.75;100393.88;154621;1093;103193;-78
2021/08/14 04:32:45;;;;;;;14.20;9.53;;;;;;;18.71;72.60;100387.26;154571;1093;103157;-78
2021/08/14 04:35:49;;;;;;;12.00;10.27;;;;;;;18.82;72.63;100389.41;154573;1098;103137;-78
2021/08/14 04:38:52;;;;;;;11.73;10.40;;;;;;;18.96;72.78;100390.27;154568;1098;103550;-78
2021/08/14 04:41:55;;;;;;;12.53;10.73;;;;;;;19.06;72.49;100386.34;154550;1093;103284;-78
2021/08/14 04:44:57;;;;;;;12.90;10.60;;;;;;;19.13;72.53;100381.75;154571;1093;103121;-79
2021/08/14 04:48:00;;;;;;;11.33;9.47;;;;;;;19.17;72.46;100388.44;154585;1098;103153;-79
2021/08/14 04:51:03;;;;;;;12.10;9.23;;;;;;;19.25;72.44;100376.58;154577;1093;103188;-79
2021/08/14 04:54:05;;;;;;;10.83;9.07;;;;;;;19.31;72.50;100379.27;154600;1093;103209;-79
2021/08/14 04:57:08;;;;;;;13.53;10.73;;;;;;;19.38;72.43;100385.53;154641;1098;103263;-79
2021/08/14 05:00:14;;;;;;;14.47;10.13;;;;;;;19.47;72.46;100386.14;154431;1098;103184;-78
2021/08/14 05:03:17;;;;;;;12.40;10.37;;;;;;;19.57;72.54;100394.70;154413;1093;103208;-80
2021/08/14 05:06:22;;;;;;;11.93;9.67;;;;;;;19.71;72.46;100400.92;154313;1093;103147;-79
2021/08/14 05:09:25;;;;;;;12.85;9.60;;;;;;;19.93;72.45;100403.42;154176;1093;103136;-77
2021/08/14 05:12:28;;;;;;;12.33;9.80;;;;;;;20.16;72.22;100398.36;154005;1093;103110;-80
2021/08/14 05:15:30;;;;;;;10.20;8.30;;;;;;;20.43;71.49;100402.88;153995;1101;103222;-79
2021/08/14 05:18:33;;;;;;;12.33;9.90;;;;;;;20.59;71.54;100405.09;154000;1101;103499;-79
2021/08/14 05:21:36;;;;;;;11.93;10.63;;;;;;;20.70;71.53;100393.59;153939;1093;103100;-79
2021/08/14 05:24:39;;;;;;;11.70;10.47;;;;;;;20.77;71.31;100394.41;154214;1098;103126;-79
2021/08/14 05:27:42;;;;;;;9.67;8.67;;;;;;;20.83;71.30;100391.88;154599;1098;103203;-79
2021/08/14 05:30:43;;;;;;;10.03;8.87;;;;;;;;;;154675;1093;103208;-79
2021/08/14 05:33:46;;;;;;;10.00;8.60;;;;;;;20.97;71.01;100394.27;154997;1094;103421;-79
2021/08/14 05:36:49;;;;;;;12.40;10.43;;;;;;;21.03;71.27;100395.28;154627;1098;103133;-80
2021/08/14 05:39:51;;;;;;;15.00;10.63;;;;;;;21.10;71.34;100401.50;154629;1098;103199;-80
2021/08/14 05:42:54;;;;;;;12.57;9.70;;;;;;;21.22;71.13;100388.06;154557;1098;103110;-79
2021/08/14 05:45:57;;;;;;;12.30;10.93;;;;;;;21.42;71.01;100400.64;154608;1093;103126;-80
2021/08/14 05:49:00;;;;;;;13.37;10.30;;;;;;;21.63;70.72;100389.42;154576;1093;103196;-80
2021/08/14 05:52:05;;;;;;;11.23;10.00;;;;;;;21.80;70.74;100384.25;154641;1098;103118;-78
2021/08/14 05:55:09;;;;;;;12.50;9.95;;;;;;;21.98;70.68;100386.19;154703;1098;103187;-80
2021/08/14 05:58:12;;;;;;;10.40;8.97;;;;;;;22.14;70.27;100392.91;154562;1093;103192;-80
2021/08/14 06:01:15;;;;;;;12.20;9.67;;;;;;;22.27;70.06;100390.06;154585;1093;103097;-80
2021/08/14 06:04:17;;;;;;;11.43;9.43;;;;;;;22.40;70.08;100386.34;154610;1093;103129;-80
2021/08/14 06:07:20;;;;;;;11.00;9.40;;;;;;;22.52;69.46;100389.14;154612;1098;103569;-79
2021/08/14 06:10:23;;;;;;;12.00;10.40;;;;;;;22.63;69.61;100393.78;154587;1093;103195;-79
2021/08/14 06:13:26;;;;;;;10.07;8.43;;;;;;;22.70;69.45;100391.81;154657;1093;103189;-80
2021/08/14 06:16:28;;;;;;;11.73;10.47;;;;;;;22.80;69.88;100399.42;153954;1101;103135;-79
2021/08/14 06:19:31;;;;;;;11.80;9.17;;;;;;;22.91;69.47;100398.64;154453;1098;103163;-79
2021/08/14 06:22:35;;;;;;;9.47;8.10;;;;;;;23.12;69.27;100397.33;154649;1098;103187;-79
2021/08/14 06:25:38;;;;;;;9.60;8.17;;;;;;;23.34;68.68;100396.77;154592;1098;103213;-80
2021/08/14 06:28:41;;;;;;;9.57;8.63;;;;;;;23.57;68.74;100395.97;154635;1098;103144;-79
2021/08/14 06:31:43;;;;;;;14.67;10.47;;;;;;;23.77;68.66;100395.65;154608;1098;103256;-80
2021/08/14 06:34:46;;;;;;;10.03;8.68;;;;;;;23.88;68.27;100396.72;154578;1093;103097;-81
2021/08/14 06:37:49;;;;;;;11.50;9.77;;;;;;;23.95;67.92;100399.34;154233;1098;103180;-80
2021/08/14 06:40:52;;;;;;;14.57;11.03;;;;;;;24.02;67.80;100397.30;154609;1093;103269;-80
2021/08/14 06:43:54;;;;;;;13.00;9.70;;;;;;;24.05;68.01;100396.83;154695;1098;103189;-81
2021/08/14 06:46:57;;;;;;;9.73;8.73;;;;;;;24.06;67.80;100398.50;154639;1093;103150;-80
2021/08/14 06:50:00;;;;;;;9.30;8.40;;;;;;;24.12;67.75;100408.45;154588;1093;103191;-80
2021/08/14 06:53:03;;;;;;;11.07;9.97;;;;;;;24.13;68.04;100401.09;154585;1098;103115;-79
2021/08/14 06:56:06;;;;;;;12.00;9.87;;;;;;;24.12;67.88;100405.72;154630;1098;103228;-80
2021/08/14 06:59:09;;;;;;;12.20;9.57;;;;;;;24.15;67.47;100399.77;154627;1093;103115;-81
2021/08/14 07:02:12;;;;;;;11.00;9.90;;;;;;;24.19;67.90;100409.16;154676;1093;103189;-80
2021/08/14 07:05:15;;;;;;;12.17;9.87;;;;;;;24.27;67.81;100408.78;154696;1093;103125;-80
2021/08/14 07:08:18;;;;;;;10.55;9.30;;;;;;;24.37;66.94;100407.34;154636;1098;103113;-80
2021/08/14 07:11:22;;;;;;;11.70;9.17;;;;;;;24.49;66.96;100408.13;154649;1098;103145;-80
2021/08/14 07:14:24;;;;;;;11.40;9.63;;;;;;;24.61;67.10;100410.85;154597;1098;103288;-80
2021/08/14 07:17:27;;;;;;;11.20;10.10;;;;;;;24.72;66.96;100418.17;154618;1093;103307;-80
2021/08/14 07:20:30;;;;;;;11.60;10.40;;;;;;;24.78;65.37;100438.20;154615;1093;103209;-80
2021/08/14 07:23:33;;;;;;;11.47;9.70;;;;;;;24.66;65.71;100425.42;154652;1092;103107;-81
2021/08/14 07:26:36;;;;;;;11.60;9.77;;;;;;;24.66;65.99;100427.34;154675;1098;103176;-81
2021/08/14 07:29:39;;;;;;;11.87;9.30;;;;;;;24.75;65.94;100420.42;154663;1094;103268;-80
2021/08/14 07:32:42;;;;;;;10.37;8.80;;;;;;;24.83;65.97;100425.48;154652;1094;103258;-80
2021/08/14 07:35:46;;;;;;;10.83;9.30;;;;;;;24.86;65.84;100435.08;154595;1098;103215;-80
2021/08/14 07:38:48;;;;;;;10.50;9.33;;;;;;;24.77;65.43;100429.20;154625;1098;103188;-80
2021/08/14 07:41:51;;;;;;;10.77;9.67;;;;;;;24.72;65.16;100431.81;154610;1093;103204;-80
2021/08/14 07:44:55;;;;;;;10.23;8.90;;;;;;;24.65;65.17;100428.39;154606;1093;103285;-80
2021/08/14 07:47:57;;;;;;;9.83;8.77;;;;;;;24.56;65.20;100435.29;154618;1093;103122;-80
2021/08/14 07:51:01;;;;;;;11.00;9.90;;;;;;;24.50;65.10;100437.08;154565;1098;103128;-80
2021/08/14 07:54:04;;;;;;;11.70;10.20;;;;;;;24.45;65.29;100437.78;154633;1093;103190;-80
2021/08/14 07:57:07;;;;;;;11.20;9.63;;;;;;;24.43;65.23;100441.83;154614;1093;103193;-80
2021/08/14 08:00:13;;;;;;;10.70;9.60;;;;;;;24.42;64.15;100449.20;154359;1098;103310;-79
2021/08/14 08:03:16;;;;;;;11.60;10.07;;;;;;;24.43;63.62;100436.38;154455;1098;103640;-80
2021/08/14 08:06:19;;;;;;;11.33;9.90;;;;;;;24.45;64.37;100434.23;154618;1098;103492;-80
2021/08/14 08:09:22;;;;;;;13.60;10.93;;;;;;;24.51;63.55;100433.30;154628;1093;103118;-79
2021/08/14 08:12:24;;;;;;;13.75;10.80;;;;;;;24.54;64.06;100431.98;154673;1098;103195;-81
2021/08/14 08:15:28;;;;;;;12.80;10.15;;;;;;;24.60;64.30;100434.58;154651;1093;103188;-79
2021/08/14 08:18:31;;;;;;;13.13;10.73;;;;;;;24.66;63.17;100435.52;154497;1098;103129;-79
2021/08/14 08:21:33;;;;;;;14.07;11.03;;;;;;;24.70;60.96;100431.23;154583;1098;104496;-79
2021/08/14 08:24:36;;;;;;;13.70;11.20;;;;;;;24.73;62.35;100436.22;154608;1094;103147;-80
2021/08/14 08:27:39;;;;;;;11.87;10.67;;;;;;;24.80;61.85;100431.42;154616;1098;103209;-80
2021/08/14 08:30:44;;;;;;;12.27;11.07;;;;;;;24.96;62.59;100440.76;154618;1098;103197;-79
2021/08/14 08:33:47;;;;;;;13.55;11.10;;;;;;;25.02;62.53;100433.46;154691;1098;103120;-80
2021/08/14 08:36:49;;;;;;;12.00;10.73;;;;;;;25.06;62.61;100438.20;154612;1098;103160;-79
2021/08/14 08:39:52;;;;;;;11.77;10.63;;;;;;;25.10;62.28;100441.28;154575;1098;103553;-80
2021/08/14 08:42:55;;;;;;;11.47;10.27;;;;;;;25.09;62.43;100440.43;154384;1098;103219;-79
2021/08/14 08:45:58;;;;;;;12.63;11.33;;;;;;;25.08;60.99;100441.52;153992;1101;103263;-79
2021/08/14 08:49:02;;;;;;;12.03;10.40;;;;;;;25.12;62.16;100433.67;153961;1101;103123;-80
2021/08/14 08:52:07;;;;;;;12.30;10.37;;;;;;;25.15;61.91;100437.80;153980;1101;103192;-79
2021/08/14 08:55:12;;;;;;;14.37;9.40;;;;;;;25.17;61.43;100436.47;153973;1094;103139;-80
2021/08/14 08:58:16;;;;;;;11.13;9.53;;;;;;;25.19;61.85;100437.09;154048;1093;103187;-80
2021/08/14 09:01:19;;;;;;;11.77;9.77;;;;;;;25.22;60.77;100438.48;154017;1101;103224;-80
2021/08/14 09:04:27;;;;;;;13.27;10.73;;;;;;;25.30;61.31;100429.91;154519;1098;103484;-80
2021/08/14 09:07:30;;;;;;;12.13;10.17;;;;;;;25.37;61.10;100441.52;154624;1093;103189;-80
2021/08/14 09:10:33;;;;;;;12.33;10.20;;;;;;;25.44;60.54;100439.46;154474;1093;103192;-80
2021/08/14 09:13:39;;;;;;;11.73;10.50;;;;;;;25.56;61.06;100433.06;154207;1094;103115;-80
2021/08/14 09:16:41;;;;;;;12.50;9.67;;;;;;;25.64;60.31;100435.41;154307;1094;103132;-79
2021/08/14 09:19:44;;;;;;;13.53;9.40;;;;;;;25.70;60.15;100426.20;154570;1098;103193;-81
2021/08/14 09:23:01;;;;;;;9.77;8.77;;;;;;;25.74;60.08;100423.81;154576;1098;103189;-80
2021/08/14 09:26:06;;;;;;;10.00;8.90;;;;;;;25.73;59.57;100428.45;154608;1098;103110;-79
2021/08/14 09:29:09;;;;;;;9.73;8.73;;;;;;;25.82;59.41;100426.94;154111;1099;103191;-80
2021/08/14 09:32:14;;;;;;;9.57;8.63;;;;;;;25.91;59.36;100418.33;154163;1093;103220;-80
2021/08/14 09:35:26;;;;;;;9.63;8.63;;;;;;;25.99;59.41;100423.39;154295;1093;103144;-79
2021/08/14 09:38:41;;;;;;;10.63;8.87;;;;;;;25.96;59.17;100430.20;154050;1098;103095;-80
2021/08/14 09:41:45;;;;;;;10.03;8.93;;;;;;;25.95;59.19;100425.80;154015;1101;103192;-80
2021/08/14 09:45:12;;;;;;;10.17;8.93;;;;;;;25.95;59.34;100412.13;153945;1101;103192;-80
2021/08/14 09:48:20;;;;;;;9.43;8.50;;;;;;;25.91;58.57;100418.33;154002;1101;103265;-80
2021/08/14 09:51:28;;;;;;;10.70;8.80;;;;;;;26.00;59.00;100417.68;154032;1101;103302;-80
2021/08/14 09:54:38;;;;;;;10.30;8.90;;;;;;;26.13;58.50;100415.65;154087;1093;103116;-80
2021/08/14 09:57:42;;;;;;;9.35;8.40;;;;;;;26.16;58.35;100415.97;154041;1101;103260;-80
2021/08/14 10:00:47;;;;;;;10.20;8.85;;;;;;;26.23;58.22;100416.63;154057;1101;103112;-81
2021/08/14 10:03:51;;;;;;;9.77;8.77;;;;;;;26.29;57.56;100403.00;153991;1093;103273;-80
2021/08/14 10:06:54;;;;;;;9.65;8.65;;;;;;;26.30;57.50;100404.66;154021;1093;103124;-81
2021/08/14 10:09:57;;;;;;;9.43;8.10;;;;;;;26.29;57.53;100400.27;154000;1093;103195;-81
2021/08/14 10:13:00;;;;;;;8.80;7.83;;;;;;;26.30;57.71;100390.98;153964;1093;103144;-81
2021/08/14 10:16:04;;;;;;;8.67;7.77;;;;;;;26.40;57.95;100394.66;154031;1101;103144;-80
2021/08/14 10:19:08;;;;;;;9.10;8.10;;;;;;;26.53;57.21;100393.45;153988;1093;103304;-80
2021/08/14 10:22:11;;;;;;;8.93;8.03;;;;;;;26.64;56.91;100394.44;154035;1093;103186;-83
2021/08/14 10:25:18;;;;;;;9.40;7.85;;;;;;;26.66;56.33;100396.90;153992;1093;103503;-80
2021/08/14 10:28:42;;;;;;;8.70;7.80;;;;;;;26.69;55.99;100396.40;154071;1101;103477;-80
2021/08/14 10:31:46;;;;;;;9.00;8.10;;;;;;;26.79;56.74;100397.34;154073;1101;103164;-80
2021/08/14 10:34:49;;;;;;;8.80;7.90;;;;;;;26.94;55.48;100393.92;154042;1101;103254;-80
2021/08/14 10:37:52;;;;;;;9.43;8.17;;;;;;;27.07;54.93;100391.87;154085;1101;103208;-80
2021/08/14 10:41:01;;;;;;;10.30;7.70;;;;;;;27.16;55.20;100393.88;153991;1094;103144;-80
2021/08/14 10:44:05;;;;;;;9.47;8.27;;;;;;;27.19;55.68;100397.99;154056;1093;103255;-80
2021/08/14 10:47:42;;;;;;;9.20;8.20;;;;;;;27.14;55.42;100392.49;154000;1101;103181;-80
2021/08/14 10:50:57;;;;;;;9.50;8.50;;;;;;;27.17;53.32;100392.77;154006;1094;103302;-80
2021/08/14 10:54:00;;;;;;;9.80;8.65;;;;;;;27.31;53.30;100381.41;154041;1093;103221;-80
2021/08/14 10:57:05;;;;;;;9.30;8.40;;;;;;;27.44;54.32;100385.63;154008;1093;103111;-81
2021/08/14 11:00:15;;;;;;;9.63;8.67;;;;;;;27.50;54.48;100379.09;154028;1101;103125;-80
2021/08/14 11:03:21;;;;;;;10.07;8.10;;;;;;;27.58;54.48;100379.45;154067;1093;103122;-81
2021/08/14 11:06:28;;;;;;;9.03;7.97;;;;;;;27.55;54.45;100377.22;154044;1093;103122;-81
2021/08/14 11:09:32;;;;;;;10.30;8.53;;;;;;;27.56;54.99;100372.56;154118;1093;103128;-81
2021/08/14 11:12:36;;;;;;;10.33;7.90;;;;;;;27.54;54.19;100382.96;154033;1093;103096;-81
2021/08/14 11:15:40;;;;;;;10.23;8.70;;;;;;;27.55;54.24;100377.22;154051;1093;103163;-81
2021/08/14 11:18:57;;;;;;;11.37;9.37;;;;;;;27.58;54.48;100379.45;154001;1101;103139;-81
2021/08/14 11:22:19;;;;;;;10.00;8.95;;;;;;;27.53;54.09;100373.92;154007;1101;103381;-81
2021/08/14 11:25:24;;;;;;;10.27;9.27;;;;;;;27.49;54.18;100377.46;154054;1093;103098;-81
2021/08/14 11:28:28;;;;;;;12.07;9.50;;;;;;;27.51;54.37;100376.09;153998;1093;103189;-81
2021/08/14 11:31:31;;;;;;;10.83;9.70;;;;;;;27.62;54.48;100377.01;154098;1101;103191;-81
2021/08/14 11:34:34;;;;;;;11.48;9.68;;;;;;;27.64;54.17;100383.05;154055;1101;103126;-81
2021/08/14 11:37:50;;;;;;;11.10;9.85;;;;;;;27.74;53.76;100388.59;153992;1093;103269;-81
2021/08/14 11:40:53;;;;;;;11.50;9.90;;;;;;;27.70;53.62;100392.14;154009;1093;103187;-81
2021/08/14 11:44:01;;;;;;;12.00;10.23;;;;;;;27.55;53.58;100379.14;153986;1093;103109;-81
2021/08/14 11:47:06;;;;;;;12.05;10.75;;;;;;;27.50;53.57;100384.58;154008;1093;103140;-81
2021/08/14 11:50:11;;;;;;;12.70;11.50;;;;;;;27.42;53.12;100378.48;154023;1101;103124;-81
2021/08/14 11:53:15;;;;;;;11.33;10.13;;;;;;;27.34;53.35;100381.72;154021;1101;103284;-81
2021/08/14 11:56:19;;;;;;;12.03;10.30;;;;;;;27.27;53.57;100369.33;154008;1101;103127;-81
2021/08/14 11:59:31;;;;;;;11.27;10.13;;;;;;;27.19;54.58;100370.59;154010;1101;103125;-81
2021/08/14 12:02:34;;;;;;;13.17;10.97;;;;;;;27.23;54.04;100374.47;153986;1093;103132;-81
2021/08/14 12:05:38;;;;;;;12.47;10.53;;;;;;;27.31;53.83;100376.78;154026;1101;103195;-81
2021/08/14 12:08:43;;;;;;;11.55;10.45;;;;;;;27.36;53.81;100367.77;154033;1101;103247;-81
2021/08/14 12:11:46;;;;;;;11.20;10.00;;;;;;;27.36;53.16;100373.24;154021;1093;103196;-81
2021/08/14 12:14:49;;;;;;;11.23;10.00;;;;;;;27.41;53.14;100370.55;154003;1093;103122;-81
2021/08/14 12:17:52;;;;;;;12.63;10.20;;;;;;;27.40;53.42;100369.70;153971;1101;103121;-81
2021/08/14 12:21:00;;;;;;;12.83;10.47;;;;;;;27.42;53.72;100375.75;153984;1093;103227;-80
2021/08/14 12:24:08;;;;;;;11.13;9.93;;;;;;;27.41;53.16;100368.63;153984;1101;103217;-81
2021/08/14 12:27:24;;;;;;;11.70;10.50;;;;;;;27.37;52.46;100374.91;154024;1093;103192;-81
2021/08/14 12:30:32;;;;;;;11.25;9.90;;;;;;;27.31;52.43;100370.45;153995;1093;103214;-81
2021/08/14 12:33:35;;;;;;;11.57;10.37;;;;;;;27.31;51.41;100384.15;154011;1101;103560;-81
2021/08/14 12:36:40;;;;;;;13.47;9.53;;;;;;;27.28;52.75;100376.47;154039;1101;103119;-81
2021/08/14 12:39:55;;;;;;;11.17;9.93;;;;;;;27.26;52.25;100373.17;154052;1093;103287;-81
2021/08/14 12:43:14;;;;;;;11.97;9.27;;;;;;;27.22;52.27;100373.65;154063;1093;103573;-81
2021/08/14 12:46:19;;;;;;;10.47;9.27;;;;;;;27.15;52.29;100380.43;154025;1093;103206;-81
2021/08/14 12:49:24;;;;;;;11.40;9.85;;;;;;;27.14;52.19;100378.80;154023;1101;103183;-81
2021/08/14 12:52:27;;;;;;;9.80;8.80;;;;;;;27.10;52.37;100374.89;154008;1101;103553;-81
2021/08/14 12:55:34;;;;;;;10.53;9.10;;;;;;;27.12;52.43;100378.20;153952;1101;103270;-81
2021/08/14 12:58:37;;;;;;;9.50;8.57;;;;;;;27.17;51.42;100380.99;154003;1093;103113;-81
2021/08/14 13:01:40;;;;;;;11.60;8.50;;;;;;;27.19;52.05;100378.81;153996;1093;103184;-81
2021/08/14 13:04:43;;;;;;;9.97;8.73;;;;;;;27.17;51.23;100370.03;153982;1093;103115;-81
2021/08/14 13:07:45;;;;;;;9.30;8.40;;;;;;;27.20;51.84;100361.31;153991;1101;104278;-81
2021/08/14 13:10:48;;;;;;;10.80;9.10;;;;;;;27.20;52.03;100364.05;153979;1101;103211;-81
2021/08/14 13:13:51;;;;;;;11.87;8.93;;;;;;;27.18;51.71;100350.61;153965;1093;103125;-81
2021/08/14 13:16:55;;;;;;;9.10;8.20;;;;;;;27.19;51.58;100359.64;153991;1101;103122;-81
2021/08/14 13:19:58;;;;;;;8.87;8.07;;;;;;;27.20;51.61;100353.09;154045;1101;103195;-81
2021/08/14 13:23:00;;;;;;;8.60;7.50;;;;;;;27.21;52.00;100355.58;153970;1101;103244;-81
2021/08/14 13:26:03;;;;;;;8.80;7.90;;;;;;;27.25;51.84;100350.41;153959;1101;103227;-81
2021/08/14 13:29:10;;;;;;;11.20;8.30;;;;;;;27.26;52.03;100346.59;153996;1101;103131;-81
2021/08/14 13:32:13;;;;;;;9.20;8.23;;;;;;;27.27;52.28;100350.15;153974;1101;103138;-81
2021/08/14 13:35:17;;;;;;;8.80;8.00;;;;;;;27.28;52.58;100351.81;154004;1101;103124;-81
2021/08/14 13:38:20;;;;;;;9.70;8.30;;;;;;;27.27;52.26;100364.66;154028;1093;103134;-81
2021/08/14 13:41:22;;;;;;;9.03;7.63;;;;;;;27.20;52.39;100347.61;154034;1101;103299;-81
2021/08/14 13:44:25;;;;;;;8.87;7.97;;;;;;;27.20;51.14;100364.87;154022;1093;103189;-81
2021/08/14 13:47:28;;;;;;;8.53;7.63;;;;;;;27.19;51.72;100351.42;153980;1101;103101;-81